Latest Weather Observations for Hamilton Island

IDQ60801

Issued at 1:22 pm EST Friday 17 September 2021 (issued every 10 minutes, with the page automatically refreshed every 10 minutes)

About weather observations | Map of weather stations | Latest weather observations for QLD | Other Formats
Station Details ID: 033106 Name: HAMILTON ISLAND AIRPORT Lat: -20.37 Lon: 148.95 Height: 58.66 m
Data from the previous 72 hours. | See also: Recent months at Hamilton Island
Date/Time
EST
Temp
°C
App
Temp
°C
Dew
Point
°C
Rel
Hum
%
Delta-T
°C
Wind Press
QNH
hPa
Press
MSL
hPa
Rain since
9am
mm
Dir  Spd
km/h
Gust
km/h
Spd
kts
Gust
kts
17/01:00pm 24.3 22.6 17.1 64 4.5 ESE 22 26 12 14 1020.0 1019.7 0.0
17/12:30pm 24.6 22.7 16.8 62 4.8 ESE 22 26 12 14 1020.2 1019.9 0.0
17/12:00pm 24.4 22.4 16.4 61 4.9 ESE 22 26 12 14 1020.4 1020.1 0.0
17/11:30am 24.1 22.0 16.1 61 4.9 ESE 22 26 12 14 1020.8 1020.5 0.0
17/11:00am 24.3 22.4 16.6 62 4.7 ESE 22 28 12 15 1021.3 1021.0 0.0
17/10:30am 24.0 22.3 16.3 62 4.7 E 20 26 11 14 1021.5 1021.2 0.0
17/10:00am 23.9 21.8 16.2 62 4.7 E 22 26 12 14 1021.7 1021.4 0.0
17/09:30am 23.9 22.1 15.9 61 4.9 ESE 20 26 11 14 1021.7 1021.4 0.0
17/09:00am 23.6 21.8 16.1 62 4.5 E 20 26 11 14 1021.5 1021.2 0.0
17/08:30am 23.0 21.2 16.1 65 4.2 E 20 26 11 14 1021.2 1020.9 0.0
17/08:00am 22.0 19.6 15.4 66 3.9 E 22 28 12 15 1020.9 1020.6 0.0
17/07:30am 22.3 19.8 15.2 64 4.2 E 22 28 12 15 1020.5 1020.2 0.0
17/07:00am 21.7 20.3 15.5 68 3.7 E 17 22 9 12 1020.1 1019.8 0.0
17/06:30am 21.4 19.4 15.0 67 3.8 E 19 22 10 12 1019.8 1019.5 0.0
17/06:00am 20.4 20.1 15.4 73 3.0 E 11 17 6 9 1019.4 1019.1 0.0
17/05:30am 20.3 20.1 15.7 75 2.7 NE 11 15 6 8 1018.9 1018.6 0.0
17/05:00am 20.2 20.0 15.6 75 2.7 ENE 11 13 6 7 1018.5 1018.2 0.0
17/04:30am 20.1 20.2 15.5 75 2.7 ENE 9 11 5 6 1018.2 1018.0 0.0
17/04:00am 19.8 20.6 15.9 78 2.3 ENE 6 9 3 5 1018.1 1017.9 0.0
17/03:30am 19.7 20.4 15.6 77 2.4 NE 6 7 3 4 1018.0 1017.8 0.0
17/03:00am 19.6 20.6 16.3 81 2.0 NE 6 9 3 5 1018.3 1018.1 0.0
17/02:30am 19.5 20.4 16.0 80 2.1 N 6 9 3 5 1018.6 1018.3 0.0
17/02:00am 19.2 20.3 17.0 87 1.3 NNW 7 9 4 5 1018.7 1018.4 0.0
17/01:30am 20.2 20.3 15.4 74 2.8 NE 9 13 5 7 1019.0 1018.7 0.0
17/01:00am 20.3 19.9 15.3 73 3.0 ENE 11 13 6 7 1019.2 1018.9 0.0
17/12:30am 20.4 19.3 15.4 73 3.0 ENE 15 17 8 9 1019.3 1019.0 0.0
17/12:00am 20.6 19.3 14.9 70 3.3 ENE 15 19 8 10 1019.6 1019.3 0.0
 
Date/Time
EST
Temp
°C
App
Temp
°C
Dew
Point
°C
Rel
Hum
%
Delta-T
°C
Wind Press
QNH
hPa
Press
MSL
hPa
Rain since
9am
mm
Dir  Spd
km/h
Gust
km/h
Spd
kts
Gust
kts
16/11:30pm 20.6 19.5 15.2 71 3.2 ENE 15 19 8 10 1019.8 1019.5 0.0
16/11:00pm 20.6 19.5 15.2 71 3.2 E 15 20 8 11 1019.8 1019.5 0.0
16/10:30pm 20.9 19.8 15.2 70 3.4 E 15 24 8 13 1019.7 1019.4 0.0
16/10:00pm 20.9 19.8 15.2 70 3.4 ENE 15 19 8 10 1019.7 1019.4 0.0
16/09:30pm 21.1 19.6 15.2 69 3.5 E 17 22 9 12 1019.7 1019.4 0.0
16/09:00pm 21.1 19.5 15.0 68 3.6 E 17 22 9 12 1019.6 1019.3 0.0
16/08:30pm 21.0 19.6 14.6 67 3.8 ENE 15 20 8 11 1019.4 1019.1 0.0
16/08:00pm 21.1 19.2 14.3 65 4.0 E 17 20 9 11 1019.1 1018.8 0.0
16/07:30pm 21.1 19.8 14.7 67 3.8 ENE 15 20 8 11 1018.9 1018.6 0.0
16/07:00pm 21.2 19.0 14.4 65 4.0 E 19 24 10 13 1018.3 1018.1 0.0
16/06:30pm 21.3 18.6 14.5 65 4.0 E 22 30 12 16 1018.0 1017.8 0.0
16/06:00pm 21.4 18.3 14.6 65 4.0 E 24 30 13 16 1017.6 1017.4 0.0
16/05:30pm 21.6 18.9 14.5 64 4.2 E 22 26 12 14 1017.5 1017.3 0.0
16/05:00pm 21.7 18.9 14.4 63 4.3 E 22 28 12 15 1017.4 1017.2 0.0
16/04:30pm 21.9 19.3 14.8 64 4.2 ESE 22 26 12 14 1017.1 1016.9 0.0
16/04:00pm 22.1 19.4 14.7 63 4.4 E 22 28 12 15 1017.0 1016.8 0.0
16/03:30pm 22.4 20.2 15.0 63 4.4 ESE 20 24 11 13 1017.1 1016.9 0.0
16/03:00pm 22.4 20.2 15.0 63 4.4 ESE 20 26 11 14 1017.3 1017.1 0.0
16/02:30pm 22.9 20.8 15.2 62 4.6 ESE 20 24 11 13 1017.6 1017.4 0.0
16/02:00pm 22.9 21.0 15.2 62 4.6 E 19 22 10 12 1017.9 1017.7 0.0
16/01:30pm 23.2 21.2 15.0 60 4.9 ESE 19 22 10 12 1018.2 1018.0 0.0
16/01:00pm 23.0 21.5 14.3 58 5.1 ESE 15 19 8 10 1018.8 1018.5 0.0
16/12:30pm 22.8 21.5 15.9 65 4.2 SSE 17 20 9 11 1019.2 1018.9 0.0
16/12:00pm 22.5 20.9 16.1 67 3.9 SSE 19 22 10 12 1019.6 1019.3 0.0
16/11:30am 23.0 21.7 16.8 68 3.8 SSE 19 26 10 14 1020.0 1019.7 0.0
16/11:00am 22.4 20.8 16.4 69 3.6 SSE 20 26 11 14 1020.3 1020.0 0.0
16/10:30am 22.2 20.7 16.7 71 3.4 SSE 20 30 11 16 1020.5 1020.2 0.0
16/10:00am 22.0 20.4 16.5 71 3.3 SSE 20 26 11 14 1020.8 1020.5 0.0
16/09:30am 21.8 19.7 16.3 71 3.3 SSE 22 26 12 14 1020.9 1020.6 0.0
16/09:00am 22.0 20.3 16.3 70 3.4 SSE 20 28 11 15 1020.8 1020.5 0.0
16/08:30am 21.0 19.5 16.4 75 2.8 SSE 19 24 10 13 1020.6 1020.3 0.0
16/08:00am 21.2 20.4 16.0 72 3.1 SSE 15 22 8 12 1020.3 1020.0 0.0
16/07:30am 20.4 19.2 16.0 76 2.6 S 17 24 9 13 1019.9 1019.6 0.0
16/07:00am 20.3 19.0 15.9 76 2.6 SSE 17 24 9 13 1019.6 1019.3 0.0
16/06:30am 19.3 17.6 15.8 80 2.1 S 19 24 10 13 1019.3 1019.0 0.0
16/06:00am 18.9 17.1 15.6 81 1.9 S 19 22 10 12 1018.8 1018.5 0.0
16/05:30am 18.9 17.4 15.4 80 2.1 SSE 17 20 9 11 1018.5 1018.2 0.0
16/05:00am 19.5 17.5 13.9 70 3.2 SE 17 22 9 12 1018.3 1018.1 0.0
16/04:30am 19.4 17.2 13.3 68 3.5 SE 17 20 9 11 1018.1 1017.9 0.0
16/04:00am 19.5 16.8 13.0 66 3.7 SE 19 24 10 13 1018.1 1017.9 0.0
16/03:30am 19.6 17.5 13.5 68 3.5 SE 17 20 9 11 1018.0 1017.8 0.0
16/03:00am 19.4 17.1 13.1 67 3.6 SE 17 20 9 11 1018.1 1017.9 0.0
16/02:30am 19.5 17.2 13.0 66 3.7 SE 17 20 9 11 1018.2 1018.0 0.0
16/02:00am 19.6 17.4 13.3 67 3.6 SE 17 20 9 11 1018.3 1018.1 0.0
16/01:30am 19.7 17.7 13.9 69 3.3 SE 17 20 9 11 1018.6 1018.3 0.0
16/01:00am 19.9 17.3 13.1 65 3.9 SE 19 24 10 13 1018.8 1018.5 0.0
16/12:30am 19.9 17.6 13.1 65 3.9 SE 17 20 9 11 1019.2 1018.9 0.0
16/12:00am 20.1 17.2 12.3 61 4.4 ESE 19 22 10 12 1019.4 1019.1 0.0
 
Date/Time
EST
Temp
°C
App
Temp
°C
Dew
Point
°C
Rel
Hum
%
Delta-T
°C
Wind Press
QNH
hPa
Press
MSL
hPa
Rain since
9am
mm
Dir  Spd
km/h
Gust
km/h
Spd
kts
Gust
kts
15/11:30pm 20.1 17.5 13.1 64 4.0 ESE 19 20 10 11 1019.5 1019.2 0.0
15/11:00pm 20.4 17.4 12.6 61 4.4 ESE 20 26 11 14 1019.5 1019.2 0.0
15/10:30pm 20.6 17.3 12.8 61 4.4 E 22 26 12 14 1019.4 1019.1 0.0
15/10:00pm 20.5 17.2 11.7 57 4.9 ESE 20 26 11 14 1019.5 1019.2 0.0
15/09:30pm 20.5 17.4 12.2 59 4.7 ESE 20 26 11 14 1019.6 1019.3 0.0
15/09:00pm 20.5 17.4 13.5 64 4.0 ESE 22 26 12 14 1019.4 1019.1 0.0
15/08:30pm 20.3 16.5 12.3 60 4.5 ESE 24 30 13 16 1019.0 1018.7 0.0
15/08:00pm 20.3 15.9 12.8 62 4.2 ESE 28 32 15 17 1018.6 1018.3 0.0
15/07:30pm 20.2 15.8 12.9 63 4.1 ESE 28 32 15 17 1018.7 1018.4 0.0
15/07:00pm 20.2 15.6 12.4 61 4.4 ESE 28 35 15 19 1018.2 1018.0 0.0
15/06:30pm 20.2 15.4 12.9 63 4.1 ESE 30 35 16 19 1018.1 1017.9 0.0
15/06:00pm 20.1 15.8 13.1 64 4.0 ESE 28 35 15 19 1017.8 1017.6 0.0
15/05:30pm 20.2 15.2 13.4 65 3.9 ESE 32 35 17 19 1017.4 1017.2 0.0
15/05:00pm 20.2 14.8 12.7 62 4.2 ESE 33 39 18 21 1017.1 1016.9 0.0
15/04:30pm 20.4 15.7 13.1 63 4.2 ESE 30 35 16 19 1016.9 1016.7 0.0
15/04:00pm 20.6 15.4 12.8 61 4.4 ESE 32 37 17 20 1016.8 1016.6 0.0
15/03:30pm 20.9 15.5 12.1 57 4.9 ESE 32 35 17 19 1016.8 1016.6 0.0
15/03:00pm 21.4 16.7 12.0 55 5.3 ESE 28 33 15 18 1017.1 1016.9 0.0
15/02:30pm 21.5 16.5 12.1 55 5.3 ESE 30 35 16 19 1017.3 1017.1 0.0
15/02:00pm 21.9 17.4 12.5 55 5.3 SE 28 39 15 21 1017.7 1017.5 0.0
15/01:30pm 22.2 17.5 11.9 52 5.8 SE 28 35 15 19 1017.9 1017.7 0.0
15/01:00pm 21.9 16.0 12.5 55 5.3 SSE 35 41 19 22 1018.2 1018.0 0.0
15/12:30pm 21.7 15.5 11.4 52 5.7 SSE 35 43 19 23 1018.7 1018.4 0.0
15/12:00pm 21.7 14.7 11.1 51 5.9 SSE 39 46 21 25 1019.1 1018.8 0.0
15/11:30am 22.0 15.6 10.8 49 6.2 SSE 35 43 19 23 1019.6 1019.3 0.0
15/11:00am 21.7 15.2 10.5 49 6.1 SSE 35 46 19 25 1019.9 1019.6 0.0
15/10:30am 21.6 15.4 11.3 52 5.7 SSE 35 43 19 23 1020.2 1019.9 0.0
15/10:00am 21.6 15.2 10.7 50 6.0 SSE 35 43 19 23 1020.4 1020.1 0.0
15/09:30am 21.3 14.5 10.8 51 5.8 SSE 37 46 20 25 1020.4 1020.1 0.0
15/09:00am 21.4 14.0 9.9 48 6.2 SSE 39 46 21 25 1020.3 1020.0 0.0
15/08:30am 21.8 14.5 10.3 48 6.3 SE 39 44 21 24 1020.2 1019.9 0.0
15/08:00am 21.7 14.6 9.6 46 6.5 SE 37 48 20 26 1020.3 1020.0 0.0
15/07:30am 21.2 14.1 9.4 47 6.3 SE 37 46 20 25 1020.1 1019.8 0.0
15/07:00am 20.9 13.0 9.5 48 6.1 SE 41 48 22 26 1019.8 1019.5 0.0
15/06:30am 20.4 12.2 8.4 46 6.3 SE 41 48 22 26 1019.6 1019.3 0.0
15/06:00am 20.1 12.1 9.1 49 5.8 SE 41 50 22 27 1019.2 1018.9 0.0
15/05:30am 20.3 11.7 8.9 48 6.0 SE 44 52 24 28 1018.7 1018.4 0.0
15/05:00am 20.4 11.2 8.1 45 6.4 SE 46 56 25 30 1018.3 1018.1 0.0
15/04:30am 20.5 11.6 7.8 44 6.6 SE 44 54 24 29 1017.8 1017.6 0.0
15/04:00am 20.8 11.8 8.8 46 6.3 SE 46 54 25 29 1017.7 1017.5 0.0
15/03:30am 21.1 12.4 8.4 44 6.7 SE 44 54 24 29 1017.5 1017.3 0.0
15/03:00am 21.4 13.1 9.9 48 6.2 SE 44 50 24 27 1017.5 1017.3 0.0
15/02:30am 21.4 15.0 14.3 64 4.2 SE 41 48 22 26 1017.4 1017.2 0.0
15/02:00am 21.4 15.0 15.3 68 3.6 SE 43 48 23 26 1017.5 1017.3 0.0
15/01:30am 21.5 16.7 16.5 73 3.0 SE 37 46 20 25 1017.7 1017.5 0.0
15/01:00am 21.3 17.7 17.7 80 2.2 SE 33 39 18 21 1017.8 1017.6 0.0
15/12:30am 21.6 18.1 18.0 80 2.2 SE 33 39 18 21 1018.1 1017.9 0.0
15/12:00am 21.4 19.1 17.6 79 2.3 SE 26 30 14 16 1018.1 1017.9 0.0
 
Date/Time
EST
Temp
°C
App
Temp
°C
Dew
Point
°C
Rel
Hum
%
Delta-T
°C
Wind Press
QNH
hPa
Press
MSL
hPa
Rain since
9am
mm
Dir  Spd
km/h
Gust
km/h
Spd
kts
Gust
kts
14/11:30pm 21.5 20.7 19.2 87 1.5 SE 22 26 12 14 1018.1 1017.9 0.0
14/11:00pm 21.2 21.5 19.7 91 1.0 SSE 17 20 9 11 1018.0 1017.8 0.0
14/10:30pm 21.1 22.1 19.4 90 1.1 SSE 13 17 7 9 1017.9 1017.7 0.0
14/10:00pm 21.5 22.8 19.2 87 1.5 S 11 13 6 7 1017.8 1017.6 0.0
14/09:30pm 21.4 21.7 17.8 80 2.2 SSE 13 15 7 8 1017.6 1017.4 0.0
14/09:00pm 21.3 22.6 18.5 84 1.8 ESE 9 13 5 7 1017.4 1017.2 0.0
14/08:30pm 21.7 22.7 18.7 83 1.9 SE 11 11 6 6 1017.0 1016.8 0.0
14/08:00pm 21.9 22.9 18.7 82 2.0 SE 11 13 6 7 1016.7 1016.5 0.0
14/07:30pm 22.1 22.1 18.9 82 2.0 ESE 17 19 9 10 1016.4 1016.2 0.0
14/07:00pm 22.2 22.8 19.4 84 1.8 ESE 15 19 8 10 1016.2 1016.0 0.0
14/06:30pm 22.4 22.3 19.6 84 1.8 ESE 19 20 10 11 1015.7 1015.5 0.0
14/06:00pm 22.4 22.1 19.6 84 1.8 ESE 20 24 11 13 1015.2 1015.0 0.0
14/05:30pm 22.5 22.1 20.2 87 1.5 E 22 26 12 14 1014.6 1014.4 0.0
14/05:00pm 22.8 22.1 20.3 86 1.6 E 24 26 13 14 1014.2 1014.0 0.0
14/04:30pm 23.1 21.9 20.8 87 1.5 E 28 30 15 16 1013.8 1013.6 0.0
14/04:00pm 23.5 22.8 21.0 86 1.6 ESE 26 28 14 15 1013.6 1013.4 0.0
14/03:30pm 24.1 24.5 21.0 83 2.0 ESE 20 26 11 14 1013.4 1013.2 0.0
14/03:00pm 25.3 26.3 20.3 74 3.3 E 15 20 8 11 1013.4 1013.2 0.0
14/02:30pm 24.6 24.3 20.3 77 2.8 E 22 26 12 14 1013.7 1013.5 0.0
14/02:00pm 25.2 24.5 19.6 71 3.6 ESE 22 26 12 14 1014.1 1013.9 0.0
14/01:30pm 26.0 25.5 18.7 64 4.7 E 19 24 10 13 1014.2 1014.0 0.0

Other formats

Comma delimited format used in spreadsheet applications
http://www.bom.gov.au/fwo/IDQ60801/IDQ60801.94368.axf

JavaScript Object Notation format (JSON) in row-major order
http://www.bom.gov.au/fwo/IDQ60801/IDQ60801.94368.json

Data quality

Most of these data are generated automatically and are frequently updated. Quality checks on data are not normally performed. It is possible for incorrect values to appear. Refer to information at About Latest Weather Observations and please check the disclaimer before using these data.